Time;durP1;ratioP1;P1;durP2;ratioP2;P2;SDS_P1;SDS_P2;PMS_P1;PMS_P2;Temp;Humidity;BMP_temperature;BMP_pressure;BME280_temperature;BME280_humidity;BME280_pressure;Samples;Min_cycle;Max_cycle;Signal;HPM_P1;HPM_P2
2022/10/10 00:00:37;;;;;;;2.55;1.10;;;10.10;99.90;;;;;;6286911;22;20381;-64
2022/10/10 00:03:03;;;;;;;3.20;1.10;;;10.10;99.90;;;;;;6289381;22;20004;-64
2022/10/10 00:05:29;;;;;;;2.22;1.35;;;10.00;99.90;;;;;;6289727;22;20007;-64
2022/10/10 00:07:54;;;;;;;4.13;1.10;;;9.90;99.90;;;;;;6290720;22;20003;-64
2022/10/10 00:10:20;;;;;;;3.78;1.10;;;10.00;99.90;;;;;;6289943;22;20600;-69
2022/10/10 00:12:46;;;;;;;2.92;1.33;;;9.90;99.90;;;;;;6289752;22;20002;-70
2022/10/10 00:15:13;;;;;;;2.45;1.30;;;9.90;99.90;;;;;;6286839;22;20006;-69
2022/10/10 00:17:39;;;;;;;5.57;1.17;;;9.80;99.90;;;;;;6289390;22;20035;-69
2022/10/10 00:20:05;;;;;;;5.63;0.88;;;9.80;99.90;;;;;;6289893;22;20007;-69
2022/10/10 00:22:31;;;;;;;4.63;0.90;;;9.80;99.90;;;;;;6288756;22;20133;-69
2022/10/10 00:24:57;;;;;;;3.13;1.27;;;9.80;99.90;;;;;;6290215;22;20079;-64
2022/10/10 00:27:22;;;;;;;4.72;1.92;;;9.80;99.90;;;;;;6290363;22;20421;-64
2022/10/10 00:29:48;;;;;;;2.80;1.20;;;9.80;99.90;;;;;;6287172;22;20378;-64
2022/10/10 00:32:13;;;;;;;2.50;1.58;;;9.70;99.90;;;;;;6288210;22;20538;-64
2022/10/10 00:34:39;;;;;;;2.25;1.20;;;9.70;99.90;;;;;;6261159;22;20015;-64
2022/10/10 00:37:05;;;;;;;5.00;1.48;;;9.70;99.90;;;;;;6292840;22;20078;-64
2022/10/10 00:39:30;;;;;;;4.50;1.02;;;9.70;99.90;;;;;;6262256;22;20095;-64
2022/10/10 00:41:56;;;;;;;4.38;1.20;;;9.70;99.90;;;;;;6291136;22;20425;-64
2022/10/10 00:44:22;;;;;;;1.30;0.95;;;9.60;99.90;;;;;;6290356;22;20034;-64
2022/10/10 00:46:47;;;;;;;1.40;1.15;;;9.50;99.90;;;;;;6289552;22;20077;-64
2022/10/10 00:49:20;;;;;;;3.60;1.58;;;9.40;99.90;;;;;;6287867;22;20015;-64
2022/10/10 00:51:48;;;;;;;2.03;0.95;;;9.40;99.90;;;;;;6263245;22;20011;-64
2022/10/10 00:54:16;;;;;;;2.80;1.10;;;9.40;99.90;;;;;;6290462;22;20003;-64
2022/10/10 00:57:10;;;;;;;1.30;1.17;;;9.30;99.90;;;;;;6288850;22;20004;-64
2022/10/10 00:59:38;;;;;;;2.28;1.10;;;9.30;99.90;;;;;;6284696;22;20011;-64
2022/10/10 01:02:04;;;;;;;1.52;1.00;;;9.30;99.90;;;;;;6287935;22;19995;-64
2022/10/10 01:04:40;;;;;;;3.00;1.20;;;9.20;99.90;;;;;;6288928;22;20011;-64
2022/10/10 01:07:16;;;;;;;3.47;1.08;;;9.20;99.90;;;;;;6290954;22;20049;-63
2022/10/10 01:09:44;;;;;;;2.55;1.10;;;9.20;99.90;;;;;;6261924;22;20551;-64
2022/10/10 01:12:38;;;;;;;1.05;0.90;;;9.20;99.90;;;;;;6288150;22;20003;-64
2022/10/10 01:15:07;;;;;;;4.57;1.42;;;9.20;99.90;;;;;;6290118;22;20015;-64
2022/10/10 01:17:57;;;;;;;2.15;1.20;;;9.10;99.90;;;;;;6286354;22;20082;-64
2022/10/10 01:20:44;;;;;;;2.67;1.60;;;9.00;99.90;;;;;;6211240;22;20018;-64
2022/10/10 01:23:35;;;;;;;4.88;0.88;;;9.00;99.90;;;;;;6290413;22;20003;-64
2022/10/10 01:26:15;;;;;;;1.02;0.90;;;9.10;99.90;;;;;;6290054;22;20328;-70
2022/10/10 01:28:57;;;;;;;0.88;0.68;;;9.00;99.90;;;;;;6288693;22;20011;-70
2022/10/10 01:31:24;;;;;;;1.10;0.85;;;9.00;99.90;;;;;;6289463;22;20034;-69
2022/10/10 01:34:15;;;;;;;3.55;1.35;;;8.80;99.90;;;;;;6293189;22;20000;-69
2022/10/10 01:36:54;;;;;;;1.77;0.95;;;8.80;99.90;;;;;;6291478;22;20080;-69
2022/10/10 01:39:53;;;;;;;2.92;1.30;;;8.70;99.90;;;;;;6292124;22;20006;-69
2022/10/10 01:42:30;;;;;;;3.35;1.75;;;8.70;99.90;;;;;;6292560;22;20448;-69
2022/10/10 01:44:56;;;;;;;3.88;1.60;;;8.80;99.90;;;;;;6293826;22;20023;-65
2022/10/10 01:47:23;;;;;;;2.78;1.45;;;8.90;99.90;;;;;;6290730;22;20038;-64
2022/10/10 01:49:51;;;;;;;1.20;0.98;;;8.90;99.90;;;;;;6289581;22;20011;-64
2022/10/10 01:52:22;;;;;;;3.75;1.50;;;8.80;99.90;;;;;;6290585;22;19996;-64
2022/10/10 01:55:07;;;;;;;1.65;1.42;;;8.80;99.90;;;;;;6285937;22;20014;-64
2022/10/10 01:58:03;;;;;;;2.55;1.63;;;8.80;99.90;;;;;;6289980;22;19999;-64
2022/10/10 02:00:34;;;;;;;3.00;1.45;;;8.90;99.90;;;;;;6262195;22;20096;-64
2022/10/10 02:03:11;;;;;;;1.13;0.70;;;8.90;99.90;;;;;;6291979;22;20091;-64
2022/10/10 02:05:36;;;;;;;4.07;1.70;;;8.90;99.90;;;;;;6288461;22;20010;-64
2022/10/10 02:08:10;;;;;;;3.80;1.98;;;8.90;99.90;;;;;;6289810;22;19999;-64
2022/10/10 02:10:46;;;;;;;4.57;1.80;;;8.90;99.90;;;;;;6290476;22;20019;-64
2022/10/10 02:13:14;;;;;;;2.13;1.38;;;9.00;99.90;;;;;;6292453;22;20013;-64
2022/10/10 02:15:47;;;;;;;1.85;1.33;;;9.00;99.90;;;;;;6289382;22;20007;-64
2022/10/10 02:18:17;;;;;;;2.25;1.10;;;9.10;99.90;;;;;;6292020;22;20069;-64
2022/10/10 02:20:44;;;;;;;3.70;1.50;;;9.10;99.90;;;;;;6292596;22;20086;-64
2022/10/10 02:23:15;;;;;;;3.03;1.70;;;9.00;99.90;;;;;;6265216;22;20027;-64
2022/10/10 02:25:44;;;;;;;5.13;1.85;;;8.90;99.90;;;;;;6289753;22;20003;-65
2022/10/10 02:28:18;;;;;;;2.33;1.77;;;8.90;99.90;;;;;;6290112;22;20015;-64
2022/10/10 02:30:47;;;;;;;2.80;1.40;;;8.80;99.90;;;;;;6261589;22;19999;-65
2022/10/10 02:33:21;;;;;;;1.35;1.05;;;8.80;99.90;;;;;;6291995;22;20007;-64
2022/10/10 02:35:49;;;;;;;3.58;1.20;;;8.80;99.90;;;;;;6290358;22;20009;-64
2022/10/10 02:38:16;;;;;;;2.13;1.38;;;8.80;99.90;;;;;;6293890;22;20382;-64
2022/10/10 02:40:44;;;;;;;2.88;1.10;;;8.70;99.90;;;;;;6294309;22;20010;-64
2022/10/10 02:43:11;;;;;;;3.30;1.23;;;8.70;99.90;;;;;;6294353;22;20012;-69
2022/10/10 02:45:38;;;;;;;1.90;1.23;;;8.70;99.90;;;;;;6293742;22;20006;-69
2022/10/10 02:48:03;;;;;;;4.13;1.42;;;8.60;99.90;;;;;;6295771;22;20007;-69
2022/10/10 02:50:30;;;;;;;1.75;1.20;;;8.50;99.90;;;;;;6266665;22;20011;-69
2022/10/10 02:52:57;;;;;;;2.80;1.40;;;8.50;99.90;;;;;;6292673;22;19999;-69
2022/10/10 02:55:22;;;;;;;3.25;1.10;;;8.40;99.90;;;;;;6295999;22;20015;-69
2022/10/10 02:57:49;;;;;;;3.45;1.15;;;8.50;99.90;;;;;;6294549;22;20117;-69
2022/10/10 03:00:15;;;;;;;1.65;1.30;;;8.40;99.90;;;;;;6293681;22;20018;-69
2022/10/10 03:02:40;;;;;;;2.00;1.52;;;8.40;99.90;;;;;;6293594;22;20034;-64
2022/10/10 03:05:07;;;;;;;3.42;1.65;;;8.30;99.90;;;;;;6294374;22;20007;-64
2022/10/10 03:07:32;;;;;;;2.85;1.30;;;8.30;99.90;;;;;;6294144;22;20007;-64
2022/10/10 03:09:58;;;;;;;2.50;1.40;;;8.30;99.90;;;;;;6296528;22;20015;-64
2022/10/10 03:12:24;;;;;;;2.90;1.98;;;8.30;99.90;;;;;;6297570;22;20082;-64
2022/10/10 03:14:49;;;;;;;40.45;23.17;;;8.40;99.90;;;;;;6295141;22;20004;-64
2022/10/10 03:17:15;;;;;;;10.73;4.63;;;8.40;99.90;;;;;;6295134;22;20521;-64
2022/10/10 03:19:40;;;;;;;6.85;2.33;;;8.40;99.90;;;;;;6295981;22;20007;-64
2022/10/10 03:22:06;;;;;;;7.30;3.88;;;8.30;99.90;;;;;;6297453;22;20325;-64
2022/10/10 03:24:32;;;;;;;7.38;3.38;;;8.20;99.90;;;;;;6294088;22;19999;-65
2022/10/10 03:26:57;;;;;;;6.32;2.55;;;8.10;99.90;;;;;;6296438;22;20007;-64
2022/10/10 03:29:23;;;;;;;4.90;2.05;;;8.10;99.90;;;;;;6295857;22;20476;-64
2022/10/10 03:31:48;;;;;;;3.90;2.20;;;8.10;99.90;;;;;;6294065;22;20845;-64
2022/10/10 03:34:14;;;;;;;4.68;2.92;;;8.10;99.90;;;;;;6296965;22;20034;-64
2022/10/10 03:36:40;;;;;;;7.45;2.42;;;8.00;99.90;;;;;;6295188;22;20003;-64
2022/10/10 03:39:06;;;;;;;4.70;2.35;;;8.00;99.90;;;;;;6269540;22;20035;-69
2022/10/10 03:41:32;;;;;;;3.53;2.03;;;8.00;99.90;;;;;;6296637;22;20007;-69
2022/10/10 03:43:58;;;;;;;4.53;2.33;;;8.00;99.90;;;;;;6296775;22;20007;-69
2022/10/10 03:46:23;;;;;;;3.75;1.40;;;8.00;99.90;;;;;;6296308;22;19999;-69
2022/10/10 03:48:49;;;;;;;2.28;1.23;;;8.00;99.90;;;;;;6294890;22;20026;-69
2022/10/10 03:51:15;;;;;;;2.40;1.25;;;7.90;99.90;;;;;;6296854;22;20316;-69
2022/10/10 03:53:40;;;;;;;3.28;1.40;;;7.80;99.90;;;;;;6295053;22;20065;-69
2022/10/10 03:56:06;;;;;;;2.88;1.50;;;7.80;99.90;;;;;;6296924;22;19999;-69
2022/10/10 03:58:32;;;;;;;4.50;1.38;;;7.80;99.90;;;;;;6297170;22;20003;-65
2022/10/10 04:01:00;;;;;;;2.85;1.33;;;7.70;99.90;;;;;;6294573;22;20011;-64
2022/10/10 04:03:27;;;;;;;4.32;1.70;;;7.80;99.90;;;;;;6293868;22;20506;-64
2022/10/10 04:05:52;;;;;;;3.67;1.52;;;7.70;99.90;;;;;;6291041;22;20003;-64
2022/10/10 04:08:18;;;;;;;3.55;1.98;;;7.80;99.90;;;;;;6293680;22;20060;-64
2022/10/10 04:10:51;;;;;;;6.65;2.17;;;7.80;99.90;;;;;;6294360;22;20026;-64
2022/10/10 04:13:17;;;;;;;2.10;1.50;;;7.80;99.90;;;;;;6295762;22;20061;-64
2022/10/10 04:15:43;;;;;;;4.13;1.90;;;7.80;99.90;;;;;;6294724;22;20003;-64
2022/10/10 04:18:08;;;;;;;5.60;2.28;;;7.80;99.90;;;;;;6295825;22;20077;-69
2022/10/10 04:20:34;;;;;;;2.10;1.50;;;7.80;99.90;;;;;;6292552;22;20417;-70
2022/10/10 04:22:59;;;;;;;1.42;1.10;;;7.80;99.90;;;;;;6294640;22;20011;-70
2022/10/10 04:25:25;;;;;;;1.35;0.88;;;7.80;99.90;;;;;;6294458;22;20011;-70
2022/10/10 04:27:51;;;;;;;2.90;1.10;;;7.70;99.90;;;;;;6266011;22;20011;-69
2022/10/10 04:30:16;;;;;;;0.63;0.63;;;7.60;99.90;;;;;;6293892;22;20003;-69
2022/10/10 04:32:42;;;;;;;1.77;1.30;;;7.60;99.90;;;;;;6295904;22;20118;-69
2022/10/10 04:35:08;;;;;;;4.32;1.55;;;7.60;99.90;;;;;;6295220;22;20053;-69
2022/10/10 04:37:33;;;;;;;2.25;1.60;;;7.50;99.90;;;;;;6292646;22;20004;-69
2022/10/10 04:39:59;;;;;;;3.95;1.65;;;7.50;99.90;;;;;;6295786;22;20003;-69
2022/10/10 04:42:25;;;;;;;2.72;1.50;;;7.50;99.90;;;;;;6297247;22;20313;-70
2022/10/10 04:44:50;;;;;;;1.52;1.10;;;7.50;99.90;;;;;;6295042;22;20181;-69
2022/10/10 04:47:16;;;;;;;2.60;1.13;;;7.50;99.90;;;;;;6296754;22;20003;-69
2022/10/10 04:49:42;;;;;;;1.92;1.00;;;7.40;99.90;;;;;;6268448;22;20025;-70
2022/10/10 04:52:11;;;;;;;3.50;1.25;;;7.30;99.90;;;;;;6295748;22;20007;-69
2022/10/10 04:54:36;;;;;;;5.10;1.50;;;7.30;99.90;;;;;;6293362;22;20003;-69
2022/10/10 04:57:03;;;;;;;1.67;1.35;;;7.30;99.90;;;;;;6295884;22;20007;-65
2022/10/10 04:59:28;;;;;;;1.23;0.60;;;7.30;99.90;;;;;;6294631;22;20007;-65
2022/10/10 05:01:54;;;;;;;3.63;0.88;;;7.30;99.90;;;;;;6294336;22;20022;-65
2022/10/10 05:04:20;;;;;;;1.90;1.38;;;7.30;99.90;;;;;;6296221;22;20090;-65
2022/10/10 05:06:45;;;;;;;2.50;1.23;;;7.20;99.90;;;;;;6291698;22;20065;-64
2022/10/10 05:09:11;;;;;;;10.38;1.70;;;7.10;99.90;;;;;;6291973;22;20013;-64
2022/10/10 05:11:36;;;;;;;3.45;1.17;;;7.10;99.90;;;;;;6295570;22;20428;-65
2022/10/10 05:14:02;;;;;;;2.95;1.60;;;7.10;99.90;;;;;;6295636;22;20484;-65
2022/10/10 05:16:28;;;;;;;3.60;2.17;;;7.10;99.90;;;;;;6294750;22;20019;-69
2022/10/10 05:18:56;;;;;;;5.65;2.03;;;7.10;99.90;;;;;;6294646;22;20046;-70
2022/10/10 05:21:21;;;;;;;7.22;2.78;;;7.10;99.90;;;;;;6294013;22;20374;-69
2022/10/10 05:23:47;;;;;;;3.10;2.47;;;7.20;99.90;;;;;;6291774;22;20011;-70
2022/10/10 05:26:13;;;;;;;6.32;2.33;;;7.20;99.90;;;;;;6287266;22;20710;-69
2022/10/10 05:28:39;;;;;;;4.68;3.40;;;7.30;99.90;;;;;;6265147;22;20089;-70
2022/10/10 05:31:05;;;;;;;3.80;2.38;;;7.30;99.90;;;;;;6289463;22;20018;-69
2022/10/10 05:33:32;;;;;;;4.43;2.63;;;7.40;99.90;;;;;;6291679;22;20108;-66
2022/10/10 05:36:16;;;;;;;7.47;2.58;;;7.50;99.90;;;;;;6289654;22;20007;-66
2022/10/10 05:38:41;;;;;;;1.50;1.40;;;7.50;99.90;;;;;;6288545;22;20156;-70
2022/10/10 05:41:08;;;;;;;7.15;1.70;;;7.50;99.90;;;;;;6289309;22;20007;-66
2022/10/10 05:43:34;;;;;;;2.60;1.75;;;7.50;99.90;;;;;;6262258;22;20010;-65
2022/10/10 05:46:00;;;;;;;4.30;2.55;;;7.50;99.90;;;;;;6291139;22;19995;-66
2022/10/10 05:48:26;;;;;;;4.70;3.08;;;7.60;99.90;;;;;;6297370;22;20424;-66
2022/10/10 05:50:55;;;;;;;10.52;4.35;;;7.60;99.90;;;;;;6291717;22;20007;-65
2022/10/10 05:53:24;;;;;;;8.45;2.63;;;7.80;99.90;;;;;;6297013;22;20003;-65
2022/10/10 05:55:50;;;;;;;5.20;3.65;;;7.90;99.90;;;;;;6294979;22;20491;-66
2022/10/10 05:58:16;;;;;;;14.05;12.35;;;8.00;99.90;;;;;;6266385;22;20007;-66
2022/10/10 06:00:43;;;;;;;7.53;5.63;;;8.20;99.90;;;;;;6295976;22;20057;-66
2022/10/10 06:03:12;;;;;;;15.23;8.60;;;8.30;99.90;;;;;;6288049;22;20003;-65
2022/10/10 06:05:43;;;;;;;8.52;6.90;;;8.40;99.90;;;;;;6295875;22;19999;-66
2022/10/10 06:08:08;;;;;;;11.00;6.95;;;8.50;99.90;;;;;;6292557;22;20425;-66
2022/10/10 06:10:36;;;;;;;8.35;5.70;;;8.60;99.90;;;;;;6269895;22;20068;-66
2022/10/10 06:13:02;;;;;;;13.18;8.02;;;8.60;99.90;;;;;;6295882;22;20003;-66
2022/10/10 06:15:28;;;;;;;12.40;7.82;;;8.70;99.90;;;;;;6294828;22;20608;-66
2022/10/10 06:17:53;;;;;;;8.60;6.90;;;8.80;99.90;;;;;;6295335;22;20057;-66
2022/10/10 06:20:19;;;;;;;11.85;8.13;;;8.90;99.90;;;;;;6295864;22;20003;-65
2022/10/10 06:22:44;;;;;;;9.55;7.50;;;9.00;99.90;;;;;;6289969;22;20004;-66
2022/10/10 06:25:10;;;;;;;6.50;5.53;;;9.10;99.90;;;;;;6294452;22;20003;-66
2022/10/10 06:27:36;;;;;;;11.95;7.88;;;9.20;99.90;;;;;;6295404;22;19999;-66
2022/10/10 06:30:02;;;;;;;9.20;6.05;;;9.30;99.90;;;;;;6293047;22;20011;-66
2022/10/10 06:32:27;;;;;;;10.85;6.13;;;9.40;99.90;;;;;;6267835;22;20012;-66
2022/10/10 06:34:53;;;;;;;9.25;6.78;;;9.50;99.90;;;;;;6294012;22;20011;-66
2022/10/10 06:37:18;;;;;;;9.73;6.85;;;9.70;99.90;;;;;;6293546;22;19999;-65
2022/10/10 06:39:44;;;;;;;7.90;4.10;;;9.80;99.90;;;;;;6288167;22;20011;-66
2022/10/10 06:42:09;;;;;;;5.03;2.70;;;10.00;99.90;;;;;;6288229;22;20003;-66
2022/10/10 06:44:35;;;;;;;2.78;1.88;;;10.20;99.90;;;;;;6289605;22;20104;-66
2022/10/10 06:47:00;;;;;;;5.70;1.50;;;10.40;99.90;;;;;;6289265;22;20375;-66
2022/10/10 06:49:26;;;;;;;2.50;1.20;;;10.60;99.90;;;;;;6291166;22;20011;-66
2022/10/10 06:51:52;;;;;;;3.53;1.30;;;10.80;99.90;;;;;;6290291;22;20021;-65
2022/10/10 06:54:17;;;;;;;3.10;1.40;;;11.00;99.90;;;;;;6292027;22;20018;-66
2022/10/10 06:56:43;;;;;;;2.72;1.50;;;11.30;99.90;;;;;;6290509;22;20540;-66
2022/10/10 06:59:08;;;;;;;5.55;1.27;;;11.50;99.90;;;;;;6294428;22;20518;-66
2022/10/10 07:01:34;;;;;;;1.60;1.30;;;11.70;99.90;;;;;;6289600;22;20064;-66
2022/10/10 07:04:00;;;;;;;3.03;1.13;;;11.90;99.90;;;;;;6292839;22;20017;-65
2022/10/10 07:06:25;;;;;;;3.17;1.20;;;12.10;99.90;;;;;;6290951;22;20424;-66
2022/10/10 07:08:51;;;;;;;1.67;1.15;;;12.20;99.90;;;;;;6292656;22;20022;-70
2022/10/10 07:11:17;;;;;;;3.58;1.40;;;12.40;99.90;;;;;;6291757;22;20675;-70
2022/10/10 07:13:42;;;;;;;2.55;1.42;;;12.40;99.90;;;;;;6293306;22;20085;-70
2022/10/10 07:16:09;;;;;;;2.58;1.23;;;12.50;99.90;;;;;;6292527;22;20003;-70
2022/10/10 07:18:36;;;;;;;1.80;1.40;;;12.60;99.90;;;;;;6293587;22;20020;-70
2022/10/10 07:21:03;;;;;;;2.00;1.20;;;12.80;99.90;;;;;;6292564;22;19999;-70
2022/10/10 07:23:30;;;;;;;4.53;1.23;;;12.90;99.90;;;;;;6295767;22;20027;-70
2022/10/10 07:26:02;;;;;;;2.47;1.30;;;13.00;99.90;;;;;;6295033;22;20041;-70
2022/10/10 07:28:28;;;;;;;2.85;1.23;;;13.20;99.90;;;;;;6295626;22;20084;-66
2022/10/10 07:30:59;;;;;;;2.40;1.38;;;13.30;99.90;;;;;;6292139;22;19999;-66
2022/10/10 07:33:25;;;;;;;1.65;1.30;;;13.40;99.90;;;;;;6294296;22;20011;-66
2022/10/10 07:35:54;;;;;;;3.90;1.27;;;13.30;99.90;;;;;;6293222;22;20687;-65
2022/10/10 07:38:19;;;;;;;2.15;1.27;;;13.40;99.90;;;;;;6294117;22;20031;-66
2022/10/10 07:40:45;;;;;;;1.67;1.02;;;13.50;99.90;;;;;;6292933;22;20060;-65
2022/10/10 07:43:11;;;;;;;2.05;1.13;;;13.70;99.90;;;;;;6295701;22;20074;-65
2022/10/10 07:45:36;;;;;;;1.27;1.10;;;13.70;99.90;;;;;;6293492;22;20007;-66
2022/10/10 07:48:02;;;;;;;1.15;1.05;;;13.80;99.90;;;;;;6292222;22;20007;-65
2022/10/10 07:50:28;;;;;;;2.45;1.20;;;13.80;99.90;;;;;;6293714;22;20045;-69
2022/10/10 07:52:54;;;;;;;10.95;1.33;;;13.80;99.90;;;;;;6290033;22;20607;-68
2022/10/10 07:55:19;;;;;;;1.67;1.00;;;13.70;99.90;;;;;;6263334;22;20015;-69
2022/10/10 07:57:46;;;;;;;2.85;0.93;;;13.90;99.90;;;;;;6265310;22;20015;-69
2022/10/10 08:00:13;;;;;;;2.75;1.30;;;14.00;99.90;;;;;;6291470;22;20007;-69
2022/10/10 08:02:38;;;;;;;2.88;1.30;;;14.20;99.90;;;;;;6293377;22;20003;-69
2022/10/10 08:05:04;;;;;;;2.58;1.48;;;14.20;99.90;;;;;;6263499;22;20077;-69
2022/10/10 08:07:30;;;;;;;1.23;1.00;;;14.20;99.90;;;;;;6291582;22;20596;-69
2022/10/10 08:09:56;;;;;;;1.77;1.17;;;14.20;99.90;;;;;;6294336;22;20011;-70
2022/10/10 08:12:21;;;;;;;2.22;1.23;;;14.40;99.90;;;;;;6292867;22;20475;-70
2022/10/10 08:14:47;;;;;;;4.45;1.38;;;14.60;99.90;;;;;;6293046;22;20009;-69
2022/10/10 08:17:12;;;;;;;1.23;1.10;;;14.60;99.90;;;;;;6294570;22;20007;-69
2022/10/10 08:19:38;;;;;;;2.92;1.08;;;14.70;99.90;;;;;;6292663;22;20447;-70
2022/10/10 08:22:04;;;;;;;1.85;1.10;;;14.70;99.90;;;;;;6292661;22;20003;-69
2022/10/10 08:24:29;;;;;;;2.70;1.13;;;14.70;99.90;;;;;;6292107;22;20034;-69
2022/10/10 08:26:55;;;;;;;2.70;1.35;;;14.70;99.90;;;;;;6293470;22;20003;-69
2022/10/10 08:29:21;;;;;;;3.70;1.23;;;14.90;99.90;;;;;;6293216;22;20057;-68
2022/10/10 08:31:46;;;;;;;2.22;1.10;;;14.90;99.90;;;;;;6292037;22;19995;-69
2022/10/10 08:34:12;;;;;;;4.00;1.20;;;14.90;99.90;;;;;;6294462;22;20006;-69
2022/10/10 08:36:38;;;;;;;3.92;1.15;;;15.10;99.90;;;;;;6295733;22;20310;-69
2022/10/10 08:39:03;;;;;;;1.70;1.25;;;15.00;99.90;;;;;;6295685;22;20010;-69
2022/10/10 08:41:48;;;;;;;1.88;1.00;;;15.00;99.90;;;;;;6264031;22;20799;-69
2022/10/10 08:44:43;;;;;;;1.35;0.90;;;15.00;99.90;;;;;;6294177;22;20038;-69
2022/10/10 08:47:14;;;;;;;1.63;1.20;;;15.00;99.90;;;;;;6293318;22;20023;-69
2022/10/10 08:50:05;;;;;;;1.35;1.20;;;15.10;99.90;;;;;;6295838;22;20019;-69
2022/10/10 08:52:38;;;;;;;1.88;1.10;;;15.00;99.90;;;;;;6266825;22;20114;-69
2022/10/10 08:55:18;;;;;;;2.28;1.55;;;15.10;99.90;;;;;;6293343;22;20462;-68
2022/10/10 08:57:58;;;;;;;1.05;1.00;;;15.20;99.90;;;;;;6294597;22;20003;-69
2022/10/10 09:00:28;;;;;;;2.33;1.50;;;15.30;99.90;;;;;;6266502;22;20460;-69
2022/10/10 09:02:56;;;;;;;2.33;1.08;;;15.30;99.90;;;;;;6295600;22;20445;-69
2022/10/10 09:06:00;;;;;;;2.83;1.30;;;15.50;99.90;;;;;;6293701;22;20034;-69
2022/10/10 09:08:43;;;;;;;1.92;1.23;;;15.70;99.90;;;;;;6294732;22;20009;-69
2022/10/10 09:11:23;;;;;;;2.33;1.15;;;15.90;99.90;;;;;;6292649;22;20017;-69
2022/10/10 09:14:18;;;;;;;2.80;1.45;;;16.00;99.90;;;;;;6288410;22;20011;-69
2022/10/10 09:17:18;;;;;;;1.60;1.23;;;16.10;99.90;;;;;;6290848;22;20003;-68
2022/10/10 09:20:26;;;;;;;8.88;1.60;;;16.30;99.90;;;;;;6291436;22;20080;-69
2022/10/10 09:23:02;;;;;;;2.45;1.27;;;16.40;99.90;;;;;;6295964;22;20011;-69
2022/10/10 09:25:44;;;;;;;4.63;1.48;;;16.50;99.90;;;;;;6294684;22;20053;-69
2022/10/10 09:28:28;;;;;;;3.08;1.35;;;16.50;99.90;;;;;;6296494;22;20515;-69
2022/10/10 09:30:57;;;;;;;3.45;1.40;;;16.50;99.90;;;;;;6292994;22;20015;-69
2022/10/10 09:33:27;;;;;;;1.92;1.40;;;16.60;99.90;;;;;;6297365;22;20106;-69
2022/10/10 09:35:55;;;;;;;3.85;1.20;;;16.60;99.90;;;;;;6295367;22;20007;-69
2022/10/10 09:38:40;;;;;;;2.15;1.20;;;16.60;99.90;;;;;;6296836;22;20007;-69
2022/10/10 09:41:11;;;;;;;2.38;1.08;;;16.60;99.90;;;;;;6296618;22;20059;-69
2022/10/10 09:43:38;;;;;;;3.00;1.73;;;16.80;99.90;;;;;;6295624;22;20078;-69
2022/10/10 09:46:05;;;;;;;1.67;1.10;;;17.00;99.90;;;;;;6294545;22;19995;-69
2022/10/10 09:48:34;;;;;;;2.53;1.20;;;17.20;99.90;;;;;;6297339;22;20039;-69
2022/10/10 09:51:03;;;;;;;2.40;1.10;;;17.40;99.90;;;;;;6298303;22;20015;-69
2022/10/10 09:53:28;;;;;;;1.58;1.13;;;17.50;99.90;;;;;;6295912;22;20011;-69
2022/10/10 09:55:54;;;;;;;2.20;1.20;;;17.50;99.90;;;;;;6294259;22;20074;-69
2022/10/10 09:58:26;;;;;;;2.80;1.58;;;17.60;99.90;;;;;;6291131;22;20428;-69
2022/10/10 10:00:54;;;;;;;3.38;0.90;;;17.50;99.90;;;;;;6292526;22;19999;-69
2022/10/10 10:03:21;;;;;;;1.95;1.30;;;17.50;99.90;;;;;;6295881;22;20011;-70
2022/10/10 10:05:58;;;;;;;2.10;1.00;;;17.50;99.90;;;;;;6295495;22;19999;-70
2022/10/10 10:08:30;;;;;;;2.13;1.15;;;17.50;99.90;;;;;;6294970;22;20007;-69
2022/10/10 10:10:57;;;;;;;3.15;1.45;;;17.70;99.90;;;;;;6294454;22;20011;-69
2022/10/10 10:13:26;;;;;;;2.72;1.23;;;17.90;99.90;;;;;;6295911;22;20074;-68
2022/10/10 10:16:09;;;;;;;3.03;1.40;;;18.10;99.90;;;;;;6295590;22;20003;-69
2022/10/10 10:18:45;;;;;;;1.27;1.05;;;18.10;99.90;;;;;;6293227;22;20339;-70
2022/10/10 10:21:20;;;;;;;4.90;1.23;;;18.10;99.90;;;;;;6295967;22;20049;-70
2022/10/10 10:24:02;;;;;;;2.17;1.20;;;18.10;99.00;;;;;;6294801;22;20076;-70
2022/10/10 10:26:51;;;;;;;3.40;1.38;;;18.20;99.60;;;;;;6293841;22;20533;-70
2022/10/10 10:29:31;;;;;;;3.38;1.38;;;18.30;98.10;;;;;;6296389;22;20015;-70
2022/10/10 10:32:14;;;;;;;2.80;1.40;;;18.20;98.20;;;;;;6295266;22;20625;-69
2022/10/10 10:34:47;;;;;;;4.47;1.25;;;18.20;98.20;;;;;;6269288;22;20016;-70
2022/10/10 10:37:50;;;;;;;2.28;1.27;;;18.20;98.60;;;;;;6269566;22;20742;-70
2022/10/10 10:40:37;;;;;;;1.98;1.25;;;18.20;97.80;;;;;;6294394;22;20049;-70
2022/10/10 10:43:27;;;;;;;2.65;1.92;;;18.30;97.60;;;;;;6292975;22;20428;-70
2022/10/10 10:46:19;;;;;;;4.15;1.70;;;18.40;96.40;;;;;;6293644;22;20527;-69
2022/10/10 10:49:13;;;;;;;4.27;1.47;;;18.50;95.90;;;;;;6293467;22;20030;-69
2022/10/10 10:51:51;;;;;;;2.08;1.45;;;18.50;96.10;;;;;;6279703;22;20035;-70
2022/10/10 10:54:23;;;;;;;3.83;1.10;;;18.50;96.10;;;;;;6297545;22;20011;-69
2022/10/10 10:57:12;;;;;;;1.85;1.38;;;18.50;95.20;;;;;;6296228;22;20085;-69
2022/10/10 11:00:02;;;;;;;1.67;1.30;;;18.40;95.20;;;;;;6294877;22;20121;-70
2022/10/10 11:02:33;;;;;;;2.55;1.05;;;18.40;95.10;;;;;;6296527;22;20003;-70
2022/10/10 11:05:05;;;;;;;3.03;1.15;;;18.40;95.30;;;;;;6297454;22;20348;-68
2022/10/10 11:07:34;;;;;;;;;;;18.50;95.60;;;;;;6297427;22;20389;-69
2022/10/10 11:10:06;;;;;;;2.35;1.02;;;18.60;95.00;;;;;;6298729;22;19928;-67
2022/10/10 11:13:04;;;;;;;2.85;1.65;;;18.70;94.80;;;;;;6297566;22;20003;-68
2022/10/10 11:15:40;;;;;;;1.73;1.00;;;18.60;93.60;;;;;;6295040;22;20041;-68
2022/10/10 11:18:25;;;;;;;2.90;1.38;;;18.50;95.00;;;;;;6297848;22;20629;-69
2022/10/10 11:21:24;;;;;;;1.50;1.00;;;18.60;95.10;;;;;;6298127;22;20717;-69
2022/10/10 11:24:05;;;;;;;2.42;1.40;;;18.70;95.10;;;;;;6290492;22;20814;-68
2022/10/10 11:26:45;;;;;;;1.75;1.05;;;18.80;95.50;;;;;;6268352;22;20052;-69
2022/10/10 11:29:20;;;;;;;5.60;1.23;;;18.60;95.30;;;;;;6298109;22;20022;-68
2022/10/10 11:31:54;;;;;;;2.08;1.35;;;18.60;95.10;;;;;;6294329;22;20038;-68
2022/10/10 11:34:39;;;;;;;2.70;1.20;;;18.60;94.90;;;;;;6296792;22;20005;-69
2022/10/10 11:37:12;;;;;;;1.85;1.20;;;18.70;95.00;;;;;;6297789;22;20027;-68
2022/10/10 11:39:44;;;;;;;2.83;1.30;;;18.90;94.90;;;;;;6296392;22;20019;-69
2022/10/10 11:42:25;;;;;;;2.50;1.30;;;18.90;93.20;;;;;;6297201;22;20006;-68
2022/10/10 11:44:56;;;;;;;6.45;1.20;;;18.80;93.80;;;;;;6297947;22;20003;-68
2022/10/10 11:47:36;;;;;;;3.47;1.27;;;18.90;94.00;;;;;;6295021;22;19995;-69
2022/10/10 11:50:09;;;;;;;4.55;1.60;;;18.90;93.20;;;;;;6295508;22;20440;-70
2022/10/10 11:52:58;;;;;;;2.67;1.38;;;19.00;93.70;;;;;;6296267;22;19999;-69
2022/10/10 11:55:46;;;;;;;1.50;1.25;;;19.10;94.20;;;;;;6294459;22;20034;-68
2022/10/10 11:58:31;;;;;;;3.85;1.40;;;19.10;92.20;;;;;;6295744;22;20003;-69
2022/10/10 12:01:34;;;;;;;1.48;1.20;;;19.00;92.90;;;;;;6295565;22;20045;-69
2022/10/10 12:04:00;;;;;;;1.90;1.17;;;19.00;93.10;;;;;;6294321;22;20023;-69
2022/10/10 12:06:40;;;;;;;3.90;1.83;;;19.00;93.50;;;;;;6291339;22;20121;-69
2022/10/10 12:09:37;;;;;;;3.20;1.45;;;19.10;92.80;;;;;;6293485;22;20015;-68
2022/10/10 12:12:18;;;;;;;4.43;1.63;;;19.10;93.00;;;;;;6258529;22;20011;-68
2022/10/10 12:14:52;;;;;;;3.63;1.53;;;19.10;92.20;;;;;;6264569;22;20011;-68
2022/10/10 12:17:21;;;;;;;1.88;1.20;;;19.20;92.20;;;;;;6289332;22;20011;-68
2022/10/10 12:19:49;;;;;;;3.55;1.73;;;19.20;91.90;;;;;;6295371;22;20045;-68
2022/10/10 12:22:23;;;;;;;2.80;1.70;;;19.10;92.20;;;;;;6294705;22;20033;-69
2022/10/10 12:25:27;;;;;;;6.95;1.48;;;19.00;92.20;;;;;;6293365;22;20521;-69
2022/10/10 12:28:04;;;;;;;2.85;1.67;;;19.00;92.50;;;;;;6291321;22;20432;-69
2022/10/10 12:30:30;;;;;;;2.55;1.58;;;19.10;91.70;;;;;;6266108;22;20026;-69
2022/10/10 12:32:56;;;;;;;2.72;1.25;;;19.20;92.30;;;;;;6293032;22;20003;-69
2022/10/10 12:35:40;;;;;;;3.92;1.55;;;19.20;91.90;;;;;;6294745;22;20076;-69
2022/10/10 12:38:16;;;;;;;3.97;1.77;;;19.20;91.90;;;;;;6296209;22;19999;-69
2022/10/10 12:40:56;;;;;;;6.60;5.00;;;19.20;92.00;;;;;;6295558;22;20056;-68
2022/10/10 12:43:46;;;;;;;6.65;3.33;;;19.30;91.10;;;;;;6294688;22;20377;-69
2022/10/10 12:46:25;;;;;;;2.30;1.48;;;19.30;91.90;;;;;;6295596;22;19999;-69
2022/10/10 12:49:23;;;;;;;2.42;1.40;;;19.20;92.00;;;;;;6295257;22;20238;-69
2022/10/10 12:52:10;;;;;;;2.17;1.40;;;19.10;92.10;;;;;;6295789;22;20011;-69
2022/10/10 12:54:40;;;;;;;3.25;1.25;;;19.00;91.50;;;;;;6295505;22;20003;-67
2022/10/10 12:57:31;;;;;;;3.85;1.40;;;19.10;92.20;;;;;;6296070;22;20003;-67
2022/10/10 13:00:03;;;;;;;12.10;1.67;;;19.10;92.30;;;;;;6291466;22;20007;-68
2022/10/10 13:02:28;;;;;;;;;;;19.10;92.20;;;;;;6295111;22;20003;-67
2022/10/10 13:04:58;;;;;;;10.27;1.77;;;19.10;91.00;;;;;;6296893;22;19982;-67
2022/10/10 13:07:24;;;;;;;6.05;1.90;;;19.10;92.20;;;;;;6297943;22;20383;-67
2022/10/10 13:09:52;;;;;;;3.25;1.48;;;19.10;92.90;;;;;;6296704;22;20018;-68
2022/10/10 13:12:29;;;;;;;5.03;1.67;;;19.10;91.20;;;;;;6297840;22;20035;-67
2022/10/10 13:14:56;;;;;;;15.95;1.83;;;19.00;91.30;;;;;;6296259;22;20007;-66